Poplar Ridge, New York
Current Conditions -  °F | °C
As of 2:56 PM on Thursday 30 Oct 2014 (Local Time) from KITH Reporting Station
Broken Clouds Broken Clouds  
Wind Chill: 41°   Ceiling: 3700
Heat Index: 46°   Visibility: 10mi
Dew Point: 36°   Wind: 9mph
Humidity: 68%   Direction: 310°NW
Pressure: 30.04"   Gusts: NA
Location:  42.74°N, 76.62°W
Report Text: KITH 301856Z 31008KT 10SM BKN037 08/02 A3004 RMK AO2 T00770022 SLP178
Loading
Personal Weather Stations






























Interactive Weather Map
Tropical Storm Tracking
New forecast layout! Learn more

10-Day Weather Forecast

Advertisements
Track Severe Weather on mobile